This is the latest recevied weather packets stored in our database for station/object VK4SSH. If no packets are shown the sender has not sent any weather packets the latest 10 day(s).
| Time | Temp. | Humidity | Pressure | Rain* | Wind** | Luminosity | Snow |
|---|---|---|---|---|---|---|---|
| 1778027130 | 26.11° C | 72% | - | 0 mm | - | - | - |
| 1778026530 | 26.11° C | 70% | - | 0 mm | - | - | - |
| 1778025930 | 26.11° C | 71% | - | 0 mm | - | - | - |
| 1778025330 | 25.56° C | 73% | - | 0 mm | - | - | - |
| 1778024730 | 25.56° C | 74% | - | 0 mm | - | - | - |
| 1778024130 | 25° C | 76% | - | 0 mm | - | - | - |
| 1778023530 | 24.44° C | 79% | - | 0 mm | - | - | - |
| 1778022934 | 23.33° C | 81% | - | 0 mm | - | - | - |
| 1778022330 | 22.78° C | 86% | - | 0 mm | - | - | - |
| 1778021130 | 21.67° C | 90% | - | 0 mm | - | - | - |
| 1778020530 | 21.67° C | 91% | - | 0 mm | - | - | - |
| 1778019930 | 21.11° C | 92% | - | 0 mm | - | - | - |
| 1778019330 | 21.11° C | 93% | - | 0 mm | - | - | - |
| 1778018730 | 20.56° C | 96% | - | 0 mm | - | - | - |
| 1778018130 | 20° C | 98% | - | 0 mm | - | - | - |
| 1778017530 | 19.44° C | 98% | - | 0 mm | - | - | - |
| 1778016930 | 19.44° C | 98% | - | 0 mm | - | - | - |
| 1778016330 | 19.44° C | 99% | - | 0 mm | - | - | - |
| 1778015730 | 19.44° C | 99% | - | 0 mm | - | - | - |
| 1778015130 | 18.89° C | 99% | - | 0 mm | - | - | - |
| 1778014530 | 18.89° C | 99% | - | 0 mm | - | - | - |
| 1778013930 | 18.33° C | 99% | - | 0 mm | - | - | - |
| 1778013330 | 18.33° C | 99% | - | 0 mm | - | - | - |
| 1778012730 | 18.89° C | 99% | - | 0 mm | - | - | - |
| 1778012130 | 18.89° C | 99% | - | 0 mm | - | - | - |
* Rain latest hour (hover to see other rain measurements)
** Current wind speed in m/s (hover to see current wind gust speed)